Canisteo, Minnesota
Current Conditions -  °F | °C
As of 1:53 PM on Wednesday 28 Jan 2015 (Local Time) from KTOB Reporting Station
Haze Haze  
Wind Chill: 18°   Ceiling: 700
Heat Index: 30°   Visibility: 2.5mi
Dew Point: 30°   Wind: 17mph
Humidity: 100%   Direction: 140°SE
Pressure: 29.8"   Gusts: NA
Location:  43.9902°N, 92.7388°W
Report Text: KTOB 281953Z AUTO 14015KT 2 1/2SM BR OVC007 M01/M01 A2980 RMK AO2
Loading
Personal Weather Stations






























Interactive Weather Map New forecast layout! Learn more

10-Day Weather Forecast

Advertisements
Track Severe Weather on mobile